Time;durP1;ratioP1;P1;durP2;ratioP2;P2;SDS_P1;SDS_P2;PMS_P1;PMS_P2;Temp;Humidity;BMP_temperature;BMP_pressure;BME280_temperature;BME280_humidity;BME280_pressure;Samples;Min_cycle;Max_cycle;Signal;HPM_P1;HPM_P2
2022/12/09 00:01:15;;;;;;;33.17;23.63;;;;;;;2.46;99.88;100597.78;4953694;28;20048;-68
2022/12/09 00:03:43;;;;;;;34.42;23.30;;;;;;;2.45;99.48;100602.16;4953325;28;20618;-68
2022/12/09 00:06:16;;;;;;;36.10;24.77;;;;;;;2.44;99.47;100603.00;4953752;28;20147;-68
2022/12/09 00:08:44;;;;;;;35.63;24.13;;;;;;;2.45;99.37;100609.97;4953192;28;20043;-68
2022/12/09 00:11:12;;;;;;;37.47;25.65;;;;;;;2.47;99.74;100609.94;4950148;28;20047;-68
2022/12/09 00:13:39;;;;;;;36.67;24.48;;;;;;;2.47;99.68;100602.13;4951574;28;20071;-69
2022/12/09 00:16:13;;;;;;;35.72;24.23;;;;;;;2.46;99.70;100593.47;4953131;28;20043;-69
2022/12/09 00:18:41;;;;;;;40.15;25.52;;;;;;;2.46;99.82;100606.50;4952750;28;20848;-69
2022/12/09 00:21:22;;;;;;;40.05;25.83;;;;;;;2.47;99.64;100594.31;4953592;28;20097;-70
2022/12/09 00:23:52;;;;;;;37.95;25.40;;;;;;;2.47;99.78;100596.94;4954575;28;20070;-69
2022/12/09 00:26:22;;;;;;;37.47;25.48;;;;;;;2.49;99.50;100590.00;4954086;28;20051;-70
2022/12/09 00:28:50;;;;;;;39.63;26.88;;;;;;;2.48;99.67;100589.16;4953827;28;20042;-69
2022/12/09 00:31:25;;;;;;;41.72;26.75;;;;;;;2.47;99.51;100591.72;4953307;28;20478;-69
2022/12/09 00:33:57;;;;;;;40.30;26.88;;;;;;;2.42;99.47;100598.69;4952068;28;20131;-69
2022/12/09 00:36:30;;;;;;;40.55;26.45;;;;;;;2.43;99.26;100597.81;4942579;28;20737;-69
2022/12/09 00:38:58;;;;;;;42.95;27.50;;;;;;;2.40;99.38;100600.41;4950903;28;20549;-69
2022/12/09 00:41:26;;;;;;;41.25;27.08;;;;;;;2.41;99.43;100602.16;4949845;28;20143;-69
2022/12/09 00:43:54;;;;;;;43.97;27.63;;;;;;;2.40;99.31;100596.06;4951954;28;20127;-69
2022/12/09 00:46:21;;;;;;;47.63;27.90;;;;;;;2.42;99.42;100603.88;4949874;28;20048;-69
2022/12/09 00:48:48;;;;;;;46.75;30.52;;;;;;;2.41;99.34;100603.00;4940184;28;20035;-69
2022/12/09 00:51:19;;;;;;;50.65;29.77;;;;;;;2.39;99.20;100601.28;4951718;28;20039;-69
2022/12/09 00:53:52;;;;;;;47.22;29.23;;;;;;;2.36;99.07;100607.34;4953336;28;20043;-69
2022/12/09 00:56:29;;;;;;;46.60;29.85;;;;;;;2.35;98.97;100600.41;4952010;28;20044;-69
2022/12/09 00:58:58;;;;;;;45.70;28.55;;;;;;;2.32;99.08;100596.09;4943741;28;20132;-69
2022/12/09 01:01:28;;;;;;;47.67;30.63;;;;;;;2.32;99.11;100600.41;4947774;28;20227;-68
2022/12/09 01:03:56;;;;;;;45.92;30.38;;;;;;;2.32;99.11;100593.50;4960469;28;20051;-68
2022/12/09 01:06:25;;;;;;;46.78;30.02;;;;;;;2.33;99.09;100595.22;4949190;28;20075;-68
2022/12/09 01:08:54;;;;;;;50.28;30.85;;;;;;;2.33;99.14;100595.22;4930640;28;20055;-68
2022/12/09 01:11:26;;;;;;;49.58;30.45;;;;;;;2.32;99.16;100590.00;4948747;28;20484;-68
2022/12/09 01:13:59;;;;;;;46.42;29.13;;;;;;;2.31;99.04;100590.88;4951536;28;20111;-70
2022/12/09 01:16:31;;;;;;;50.40;32.63;;;;;;;2.30;99.04;100590.00;4951303;28;20052;-70
2022/12/09 01:19:03;;;;;;;48.97;30.85;;;;;;;2.29;99.22;100593.47;4934724;28;20052;-70
2022/12/09 01:21:32;;;;;;;50.47;31.60;;;;;;;2.28;99.24;100596.94;4934732;28;20151;-70
2022/12/09 01:24:00;;;;;;;48.45;30.83;;;;;;;2.29;99.36;100597.84;4951546;28;20120;-70
2022/12/09 01:26:27;;;;;;;45.95;29.75;;;;;;;2.27;99.09;100605.63;4953499;28;20044;-70
2022/12/09 01:28:56;;;;;;;46.22;30.35;;;;;;;2.25;98.95;100601.28;4951056;28;20054;-70
2022/12/09 01:31:24;;;;;;;44.53;28.73;;;;;;;2.23;98.91;100611.69;4949412;28;20087;-70
2022/12/09 01:33:56;;;;;;;47.65;29.05;;;;;;;2.20;98.69;100608.22;4952060;28;20047;-70
2022/12/09 01:36:28;;;;;;;46.70;29.77;;;;;;;2.17;98.55;100614.28;4951980;28;20114;-70
2022/12/09 01:38:58;;;;;;;50.67;30.00;;;;;;;2.13;98.66;100608.22;4949609;28;20078;-67
2022/12/09 01:41:26;;;;;;;46.88;29.80;;;;;;;2.09;98.43;100606.47;4933560;28;20055;-70
2022/12/09 01:44:10;;;;;;;47.00;30.33;;;;;;;2.07;98.30;100612.53;4952220;28;20138;-69
2022/12/09 01:46:37;;;;;;;51.55;29.73;;;;;;;2.03;98.46;100611.66;4952023;28;20036;-69
2022/12/09 01:49:10;;;;;;;46.60;29.73;;;;;;;2.02;98.28;100622.94;4950919;28;20079;-69
2022/12/09 01:51:39;;;;;;;48.90;30.48;;;;;;;1.99;98.46;100609.91;4950804;28;20044;-70
2022/12/09 01:54:07;;;;;;;49.78;30.42;;;;;;;2.01;98.40;100622.09;4951304;28;20408;-70
2022/12/09 01:56:36;;;;;;;50.42;31.05;;;;;;;2.03;98.60;100621.22;4952215;28;20048;-70
2022/12/09 01:59:11;;;;;;;49.75;31.38;;;;;;;2.03;98.55;100611.66;4944324;28;20047;-70
2022/12/09 02:01:41;;;;;;;50.55;31.83;;;;;;;2.04;98.74;100618.59;4928115;28;20131;-71
2022/12/09 02:04:08;;;;;;;52.03;32.17;;;;;;;2.04;98.63;100609.91;4953535;28;20044;-70
2022/12/09 02:06:37;;;;;;;52.40;32.13;;;;;;;2.03;98.65;100605.63;4932957;28;20060;-69
2022/12/09 02:09:08;;;;;;;52.20;33.00;;;;;;;2.03;98.81;100616.03;4934502;28;20051;-69
2022/12/09 02:12:21;;;;;;;53.40;32.85;;;;;;;2.06;98.67;100621.19;4948670;28;20039;-69
2022/12/09 02:15:03;;;;;;;50.72;32.85;;;;;;;2.04;98.83;100608.22;4936266;28;20050;-69
2022/12/09 02:17:45;;;;;;;59.83;32.97;;;;;;;2.03;98.93;100611.66;4932307;28;20056;-70
2022/12/09 02:20:42;;;;;;;56.65;32.58;;;;;;;2.02;98.67;100604.72;4948934;28;20123;-70
2022/12/09 02:23:32;;;;;;;54.85;32.97;;;;;;;2.03;98.65;100621.22;4947111;28;20051;-70
2022/12/09 02:26:28;;;;;;;50.25;31.27;;;;;;;2.01;98.73;100616.88;4927894;28;20066;-70
2022/12/09 02:29:12;;;;;;;53.05;32.80;;;;;;;2.02;98.64;100620.34;4948253;28;20055;-70
2022/12/09 02:32:36;;;;;;;61.05;34.33;;;;;;;2.00;98.57;100614.25;4934386;28;20804;-70
2022/12/09 02:35:31;;;;;;;55.67;32.47;;;;;;;1.97;98.54;100619.47;4946003;28;20091;-68
2022/12/09 02:38:15;;;;;;;53.85;33.03;;;;;;;1.98;98.41;100611.66;4931319;28;20054;-69
2022/12/09 02:40:55;;;;;;;53.70;34.72;;;;;;;1.95;98.29;100613.41;4932386;28;20051;-69
2022/12/09 02:43:33;;;;;;;55.58;32.95;;;;;;;1.98;98.57;100618.63;4932050;28;20060;-69
2022/12/09 02:46:03;;;;;;;55.70;34.03;;;;;;;1.96;98.52;100613.38;4949803;28;20484;-70
2022/12/09 02:48:48;;;;;;;51.90;33.08;;;;;;;1.98;98.60;100613.41;4949198;28;20391;-70
2022/12/09 02:51:19;;;;;;;58.90;34.92;;;;;;;1.98;98.49;100610.81;4921730;28;20047;-69
2022/12/09 02:53:53;;;;;;;65.13;34.53;;;;;;;1.96;98.33;100607.34;4932053;28;20587;-69
2022/12/09 02:56:23;;;;;;;61.30;33.85;;;;;;;1.94;98.41;100604.72;4950075;28;20058;-69
2022/12/09 02:58:51;;;;;;;57.20;33.28;;;;;;;1.96;98.31;100599.53;4949872;28;20044;-69
2022/12/09 03:02:13;;;;;;;57.75;33.53;;;;;;;1.96;98.40;100595.19;4933775;28;20099;-69
2022/12/09 03:04:54;;;;;;;62.25;34.45;;;;;;;1.93;98.15;100595.22;4925830;28;20059;-69
2022/12/09 03:07:51;;;;;;;63.63;34.88;;;;;;;1.87;97.87;100584.78;4944079;28;20051;-69
2022/12/09 03:10:42;;;;;;;61.45;33.20;;;;;;;1.84;97.78;100584.75;4948762;28;20040;-69
2022/12/09 03:13:21;;;;;;;62.45;33.78;;;;;;;1.84;98.17;100589.97;4949898;28;20059;-69
2022/12/09 03:15:58;;;;;;;70.28;35.17;;;;;;;1.85;98.13;100586.50;4940661;28;20066;-70
2022/12/09 03:18:30;;;;;;;67.18;35.08;;;;;;;1.84;98.42;100590.84;4945611;28;20047;-69
2022/12/09 03:21:02;;;;;;;64.10;34.33;;;;;;;1.84;98.35;100585.66;4950190;28;20048;-69
2022/12/09 03:23:35;;;;;;;66.57;34.50;;;;;;;1.86;98.19;100589.13;4948098;28;20036;-69
2022/12/09 03:26:05;;;;;;;63.65;34.78;;;;;;;1.89;98.38;100595.16;4950128;28;20044;-70
2022/12/09 03:28:41;;;;;;;65.97;34.83;;;;;;;1.89;98.36;100569.16;4946878;28;20071;-69
2022/12/09 03:31:16;;;;;;;65.07;34.72;;;;;;;1.92;98.36;100576.97;4950470;28;20050;-69
2022/12/09 03:33:49;;;;;;;61.95;34.17;;;;;;;1.91;98.40;100577.84;4951487;28;20738;-69
2022/12/09 03:36:21;;;;;;;62.70;32.95;;;;;;;1.89;98.37;100571.78;4954185;28;20052;-69
2022/12/09 03:38:52;;;;;;;63.63;34.13;;;;;;;1.91;98.39;100572.66;4947767;28;20126;-69
2022/12/09 03:41:32;;;;;;;64.38;33.70;;;;;;;1.89;98.22;100570.06;4952717;28;20103;-70
2022/12/09 03:44:29;;;;;;;62.13;34.42;;;;;;;1.88;97.80;100570.91;4952795;28;20047;-70
2022/12/09 03:46:56;;;;;;;67.30;35.38;;;;;;;1.84;98.24;100572.66;4946882;28;20115;-69
2022/12/09 03:49:24;;;;;;;65.40;35.55;;;;;;;1.83;98.01;100573.50;4949929;28;20095;-69
2022/12/09 03:52:19;;;;;;;66.68;33.80;;;;;;;1.85;98.01;100561.38;4953961;28;20063;-69
2022/12/09 03:54:59;;;;;;;59.92;33.70;;;;;;;1.83;98.26;100562.25;4934569;28;20048;-69
2022/12/09 03:57:28;;;;;;;66.95;33.95;;;;;;;1.82;98.22;100556.19;4953237;28;20035;-69
2022/12/09 03:59:59;;;;;;;64.68;34.58;;;;;;;1.84;98.34;100559.66;4953410;28;20040;-70
2022/12/09 04:02:27;;;;;;;68.88;35.40;;;;;;;1.85;98.42;100561.38;4952872;28;20071;-69
2022/12/09 04:04:55;;;;;;;65.20;33.83;;;;;;;1.87;98.46;100563.97;4953015;28;20126;-70
2022/12/09 04:07:23;;;;;;;63.60;33.30;;;;;;;1.88;98.40;100562.25;4952537;28;20052;-71
2022/12/09 04:09:50;;;;;;;66.93;34.22;;;;;;;1.90;98.30;100568.31;4951166;28;21457;-72
2022/12/09 04:12:17;;;;;;;74.57;33.92;;;;;;;1.92;98.42;100563.97;4949218;28;20047;-72
2022/12/09 04:14:45;;;;;;;73.60;35.17;;;;;;;1.93;98.35;100568.31;4950976;28;20036;-72
2022/12/09 04:17:12;;;;;;;70.07;35.58;;;;;;;1.92;98.18;100562.28;4949358;28;20927;-72
2022/12/09 04:19:40;;;;;;;73.45;35.15;;;;;;;1.94;98.38;100554.47;4952254;28;20119;-70
2022/12/09 04:22:08;;;;;;;65.95;34.70;;;;;;;1.95;98.40;100554.44;4953060;28;20096;-71
2022/12/09 04:24:35;;;;;;;71.40;35.38;;;;;;;1.96;98.41;100553.59;4952413;28;20055;-72
2022/12/09 04:27:02;;;;;;;70.68;35.22;;;;;;;1.98;98.43;100558.81;4950547;28;20084;-70
2022/12/09 04:29:30;;;;;;;76.15;35.83;;;;;;;1.99;98.44;100550.13;4953875;28;20044;-71
2022/12/09 04:31:57;;;;;;;75.50;35.30;;;;;;;1.99;98.42;100558.81;4953502;28;20119;-69
2022/12/09 04:34:24;;;;;;;70.20;35.72;;;;;;;1.99;98.57;100558.81;4952030;28;20072;-69
2022/12/09 04:36:52;;;;;;;75.53;35.83;;;;;;;2.00;98.67;100557.06;4952191;28;20993;-69
2022/12/09 04:39:19;;;;;;;76.30;36.75;;;;;;;2.01;98.63;100559.66;4950127;28;20500;-69
2022/12/09 04:41:46;;;;;;;78.07;37.00;;;;;;;2.01;98.64;100553.59;4950652;28;20100;-69
2022/12/09 04:44:13;;;;;;;80.57;36.90;;;;;;;2.00;98.69;100550.13;4952739;28;20040;-70
2022/12/09 04:46:40;;;;;;;78.03;36.42;;;;;;;2.03;98.76;100556.22;4951246;28;20066;-69
2022/12/09 04:49:08;;;;;;;77.15;37.00;;;;;;;2.03;98.60;100557.06;4951213;28;20040;-69
2022/12/09 04:51:35;;;;;;;75.65;36.13;;;;;;;2.05;98.75;100562.25;4951736;28;20047;-68
2022/12/09 04:54:12;;;;;;;76.03;35.70;;;;;;;2.04;98.54;100553.59;4950606;28;20486;-70
2022/12/09 04:56:40;;;;;;;70.88;34.58;;;;;;;2.04;98.80;100563.13;4950367;28;20047;-71
2022/12/09 04:59:08;;;;;;;87.45;36.45;;;;;;;2.03;98.42;100548.41;4950476;28;20124;-71
2022/12/09 05:01:35;;;;;;;81.38;36.40;;;;;;;2.02;98.52;100552.72;4952522;28;20048;-71
2022/12/09 05:04:03;;;;;;;85.50;36.45;;;;;;;2.01;98.50;100551.88;4952898;28;20055;-70
2022/12/09 05:06:33;;;;;;;86.82;36.47;;;;;;;2.02;98.43;100550.13;4951255;28;20136;-70
2022/12/09 05:09:01;;;;;;;87.30;37.50;;;;;;;2.00;98.45;100551.84;4944785;28;20125;-70
2022/12/09 05:11:28;;;;;;;88.78;37.58;;;;;;;2.00;98.45;100557.94;4949405;28;20048;-71
2022/12/09 05:13:56;;;;;;;92.75;37.58;;;;;;;2.00;98.51;100554.44;4951832;28;20166;-71
2022/12/09 05:16:23;;;;;;;93.20;38.97;;;;;;;1.99;98.53;100556.19;4951684;28;20055;-71
2022/12/09 05:18:51;;;;;;;88.55;37.03;;;;;;;1.98;98.48;100548.41;4951511;28;20469;-71
2022/12/09 05:21:20;;;;;;;97.72;38.92;;;;;;;1.98;98.33;100551.00;4951053;28;20560;-71
2022/12/09 05:23:48;;;;;;;92.10;38.53;;;;;;;1.94;98.31;100544.06;4951977;28;20054;-71
2022/12/09 05:26:19;;;;;;;102.97;40.50;;;;;;;1.91;97.96;100549.25;4952444;28;20051;-71
2022/12/09 05:28:47;;;;;;;93.32;38.78;;;;;;;1.90;97.99;100552.72;4950712;28;20466;-71
2022/12/09 05:31:18;;;;;;;91.18;38.17;;;;;;;1.90;98.07;100550.13;4940647;28;20053;-70
2022/12/09 05:33:48;;;;;;;90.72;38.45;;;;;;;1.92;98.05;100548.38;4955575;28;20048;-68
2022/12/09 05:36:23;;;;;;;100.40;38.70;;;;;;;1.93;98.26;100545.81;4953284;28;20047;-69
2022/12/09 05:38:52;;;;;;;99.68;39.28;;;;;;;1.92;98.25;100546.66;4952478;28;20815;-69
2022/12/09 05:41:21;;;;;;;90.90;39.50;;;;;;;1.93;98.51;100551.00;4957456;28;20458;-70
2022/12/09 05:43:50;;;;;;;95.35;38.85;;;;;;;1.93;98.23;100545.81;4947657;28;20757;-69
2022/12/09 05:46:19;;;;;;;102.82;41.53;;;;;;;1.96;98.29;100544.94;4949574;28;20530;-69
2022/12/09 05:48:46;;;;;;;112.95;40.05;;;;;;;1.96;98.40;100550.13;4948629;28;20131;-69
2022/12/09 05:51:22;;;;;;;99.18;39.33;;;;;;;1.97;98.29;100544.91;4952797;28;20143;-69
2022/12/09 05:53:49;;;;;;;106.47;39.70;;;;;;;1.99;98.30;100551.00;4949782;28;20055;-69
2022/12/09 05:56:20;;;;;;;96.40;37.55;;;;;;;2.00;98.40;100551.84;4951893;28;20051;-69
2022/12/09 05:58:48;;;;;;;88.70;37.60;;;;;;;2.00;98.15;100549.25;4950472;28;20118;-69
2022/12/09 06:01:16;;;;;;;92.18;36.63;;;;;;;2.05;98.47;100544.03;4952827;28;20501;-69
2022/12/09 06:03:48;;;;;;;80.13;35.13;;;;;;;2.13;98.33;100545.78;4951064;28;20043;-69
2022/12/09 06:06:20;;;;;;;74.75;32.10;;;;;;;2.17;97.44;100551.84;4953476;28;20064;-69
2022/12/09 06:08:48;;;;;;;71.30;34.72;;;;;;;2.14;97.42;100550.13;4949340;28;20530;-68
2022/12/09 06:11:20;;;;;;;68.70;32.63;;;;;;;2.14;97.15;100542.31;4951158;28;20048;-69
2022/12/09 06:13:49;;;;;;;79.13;33.35;;;;;;;2.13;97.22;100544.94;4954741;28;20047;-69
2022/12/09 06:16:20;;;;;;;79.95;33.88;;;;;;;2.10;97.23;100551.00;4949794;28;20450;-69
2022/12/09 06:18:48;;;;;;;61.60;31.33;;;;;;;2.10;97.26;100545.78;4946111;28;20135;-69
2022/12/09 06:21:19;;;;;;;69.45;31.13;;;;;;;2.17;97.32;100547.53;4953768;28;20110;-69
2022/12/09 06:23:48;;;;;;;63.35;31.10;;;;;;;2.15;97.09;100538.88;4958223;28;20083;-69
2022/12/09 06:26:21;;;;;;;69.78;31.25;;;;;;;2.13;96.78;100548.41;4937866;28;20108;-69
2022/12/09 06:28:51;;;;;;;67.35;30.95;;;;;;;2.11;96.70;100554.47;4948875;28;20055;-69
2022/12/09 06:31:19;;;;;;;69.97;29.55;;;;;;;2.06;96.48;100554.47;4952012;28;20549;-70
2022/12/09 06:33:47;;;;;;;69.22;30.08;;;;;;;2.00;96.35;100552.72;4953502;28;20058;-70
2022/12/09 06:36:28;;;;;;;64.85;29.95;;;;;;;1.97;96.46;100549.28;4963077;28;20164;-70
2022/12/09 06:39:00;;;;;;;61.55;29.05;;;;;;;1.95;96.66;100558.78;4952409;28;20039;-70
2022/12/09 06:41:39;;;;;;;63.10;28.45;;;;;;;1.93;96.64;100552.72;4955643;28;20051;-70
2022/12/09 06:44:09;;;;;;;65.53;28.35;;;;;;;1.92;96.72;100550.97;4944915;28;20044;-69
2022/12/09 06:46:36;;;;;;;65.40;27.95;;;;;;;1.93;96.68;100552.72;4961371;28;20493;-69
2022/12/09 06:49:04;;;;;;;61.35;26.42;;;;;;;1.92;96.27;100554.47;4946907;28;20131;-69
2022/12/09 06:51:36;;;;;;;60.85;27.40;;;;;;;1.92;96.12;100556.19;4968593;28;20035;-70
2022/12/09 06:54:03;;;;;;;61.63;27.50;;;;;;;1.88;95.84;100554.47;4949262;28;20138;-70
2022/12/09 06:56:33;;;;;;;62.97;28.05;;;;;;;1.86;95.99;100550.13;4952005;28;20176;-69
2022/12/09 06:59:06;;;;;;;59.78;28.58;;;;;;;1.85;96.10;100551.00;4950885;28;20092;-69
2022/12/09 07:01:35;;;;;;;61.90;28.85;;;;;;;1.83;96.12;100555.31;4950337;28;20126;-70
2022/12/09 07:04:04;;;;;;;55.33;26.02;;;;;;;1.82;96.14;100561.38;4949033;28;20594;-69
2022/12/09 07:06:44;;;;;;;59.65;27.58;;;;;;;1.83;96.06;100562.25;4953992;28;20040;-70
2022/12/09 07:09:19;;;;;;;58.92;27.38;;;;;;;1.77;96.14;100559.63;4951966;28;20040;-70
2022/12/09 07:11:47;;;;;;;62.10;27.27;;;;;;;1.73;95.78;100566.56;4953753;28;20078;-70
2022/12/09 07:14:18;;;;;;;57.83;26.52;;;;;;;1.69;95.66;100563.09;4955845;28;20052;-69
2022/12/09 07:16:46;;;;;;;57.30;26.92;;;;;;;1.66;95.71;100564.84;4947243;28;20568;-70
2022/12/09 07:19:18;;;;;;;59.85;26.35;;;;;;;1.62;95.72;100565.66;4956488;28;20039;-70
2022/12/09 07:21:48;;;;;;;57.53;26.52;;;;;;;1.55;95.63;100568.28;4955179;28;20086;-70
2022/12/09 07:24:18;;;;;;;63.40;27.05;;;;;;;1.52;95.69;100570.00;4956836;28;20048;-70
2022/12/09 07:26:48;;;;;;;62.60;27.73;;;;;;;1.49;95.49;100564.78;4942300;28;21559;-72
2022/12/09 07:29:17;;;;;;;55.65;25.98;;;;;;;1.46;95.45;100569.97;4948079;28;20132;-71
2022/12/09 07:31:46;;;;;;;58.10;26.02;;;;;;;1.42;95.70;100578.63;4943774;28;20104;-71
2022/12/09 07:34:14;;;;;;;49.20;22.38;;;;;;;1.40;95.56;100578.59;4945401;28;20044;-71
2022/12/09 07:36:41;;;;;;;51.25;22.80;;;;;;;1.34;95.63;100587.25;4955222;28;20047;-71
2022/12/09 07:39:15;;;;;;;49.03;23.85;;;;;;;1.32;95.59;100581.19;4956202;28;20052;-71
2022/12/09 07:41:44;;;;;;;51.97;23.57;;;;;;;1.29;95.69;100581.19;4951751;28;20042;-70
2022/12/09 07:44:11;;;;;;;48.95;23.20;;;;;;;1.28;95.61;100581.16;4955246;28;20077;-71
2022/12/09 07:46:39;;;;;;;47.33;22.63;;;;;;;1.27;95.61;100582.91;4943470;28;20048;-71
2022/12/09 07:49:09;;;;;;;53.53;23.52;;;;;;;1.26;95.29;100588.94;4947887;28;20052;-71
2022/12/09 07:51:38;;;;;;;48.92;23.83;;;;;;;1.21;94.92;100582.88;4935158;28;20047;-71
2022/12/09 07:54:14;;;;;;;54.60;24.05;;;;;;;1.17;94.70;100581.13;4948962;28;21129;-71
2022/12/09 07:56:44;;;;;;;51.05;23.65;;;;;;;1.15;94.62;100582.84;4950691;28;20415;-72
2022/12/09 07:59:13;;;;;;;52.88;24.23;;;;;;;1.14;94.81;100587.19;4948240;28;20052;-71
2022/12/09 08:01:42;;;;;;;50.60;23.45;;;;;;;1.15;95.07;100585.44;4955458;28;20473;-71
2022/12/09 08:04:09;;;;;;;60.47;26.30;;;;;;;1.16;95.18;100588.06;4940029;28;20084;-71
2022/12/09 08:06:37;;;;;;;53.78;24.88;;;;;;;1.17;95.34;100589.75;4953590;28;20067;-71
2022/12/09 08:09:11;;;;;;;55.67;25.35;;;;;;;1.20;95.42;100599.31;4946354;28;20048;-71
2022/12/09 08:11:39;;;;;;;52.05;24.83;;;;;;;1.24;95.72;100594.16;4950385;28;20036;-71
2022/12/09 08:14:10;;;;;;;53.00;24.48;;;;;;;1.32;95.88;100595.91;4952239;28;20070;-71
2022/12/09 08:16:41;;;;;;;50.70;24.90;;;;;;;1.38;95.79;100606.31;4952221;28;20051;-70
2022/12/09 08:19:10;;;;;;;56.47;25.13;;;;;;;1.39;95.84;100600.25;4954398;28;20035;-71
2022/12/09 08:21:39;;;;;;;55.28;26.15;;;;;;;1.43;95.79;100594.22;4954279;28;20052;-71
2022/12/09 08:24:11;;;;;;;57.67;25.13;;;;;;;1.48;95.81;100591.63;4951853;28;20051;-71
2022/12/09 08:26:40;;;;;;;60.20;26.35;;;;;;;1.52;95.90;100590.78;4941566;28;20572;-71
2022/12/09 08:29:11;;;;;;;58.95;25.35;;;;;;;1.56;95.90;100597.72;4951954;28;20126;-71
2022/12/09 08:31:42;;;;;;;58.72;27.02;;;;;;;1.59;95.63;100602.03;4938636;28;20510;-71
2022/12/09 08:34:13;;;;;;;58.50;27.13;;;;;;;1.57;95.68;100596.00;4955655;28;20051;-72
2022/12/09 08:36:41;;;;;;;56.17;26.60;;;;;;;1.55;95.42;100593.38;4954821;28;20383;-72
2022/12/09 08:39:13;;;;;;;61.13;27.48;;;;;;;1.55;95.25;100594.25;4955499;28;20111;-72
2022/12/09 08:41:42;;;;;;;58.53;26.77;;;;;;;1.56;95.31;100589.91;4955247;28;20051;-72
2022/12/09 08:44:14;;;;;;;59.30;27.58;;;;;;;1.60;95.20;100590.78;4939182;28;20146;-72
2022/12/09 08:46:47;;;;;;;65.80;26.85;;;;;;;1.63;95.23;100594.25;4948700;28;20140;-72
2022/12/09 08:49:18;;;;;;;57.35;26.38;;;;;;;1.62;94.95;100587.34;4927519;29;20048;-71
2022/12/09 08:51:49;;;;;;;58.42;26.63;;;;;;;1.62;94.60;100587.34;4935643;28;20047;-72
2022/12/09 08:54:18;;;;;;;60.15;25.88;;;;;;;1.61;94.56;100589.91;4954493;28;20043;-70
2022/12/09 08:56:48;;;;;;;60.97;26.55;;;;;;;1.57;94.51;100585.59;4947077;28;20054;-71
2022/12/09 08:59:17;;;;;;;58.83;26.73;;;;;;;1.57;94.67;100596.00;4954944;28;20064;-71
2022/12/09 09:01:44;;;;;;;58.30;25.95;;;;;;;1.60;94.76;100593.38;4954304;28;20047;-71
2022/12/09 09:04:18;;;;;;;59.15;25.52;;;;;;;1.65;94.94;100592.53;4954690;28;20044;-71
2022/12/09 09:06:49;;;;;;;59.47;27.15;;;;;;;1.72;94.89;100595.16;4954781;28;20044;-70
2022/12/09 09:09:19;;;;;;;58.80;27.00;;;;;;;1.76;95.15;100595.16;4953925;28;20055;-70
2022/12/09 09:11:46;;;;;;;54.80;25.67;;;;;;;1.84;95.31;100596.03;4936660;28;20991;-71
2022/12/09 09:14:15;;;;;;;56.75;25.35;;;;;;;1.92;95.11;100592.59;4953603;28;20537;-70
2022/12/09 09:16:44;;;;;;;58.00;27.55;;;;;;;2.00;95.02;100598.66;4955460;28;20051;-71
2022/12/09 09:19:21;;;;;;;60.42;26.08;;;;;;;2.05;94.93;100599.53;4953540;28;20059;-70
2022/12/09 09:21:48;;;;;;;53.17;24.08;;;;;;;2.05;93.79;100593.47;4954727;28;20173;-71
2022/12/09 09:24:20;;;;;;;48.88;24.27;;;;;;;2.06;93.38;100598.69;4955157;28;20051;-71
2022/12/09 09:26:49;;;;;;;49.08;23.45;;;;;;;2.04;92.86;100603.00;4955492;28;20107;-71
2022/12/09 09:29:20;;;;;;;49.72;24.27;;;;;;;2.07;93.12;100594.34;4944083;28;20123;-70
2022/12/09 09:31:52;;;;;;;47.95;22.90;;;;;;;2.11;92.84;100598.69;4951046;28;20047;-69
2022/12/09 09:34:22;;;;;;;50.50;24.87;;;;;;;2.12;92.72;100605.63;4945404;28;20514;-70
2022/12/09 09:36:50;;;;;;;48.63;24.08;;;;;;;2.13;92.80;100609.97;4955076;28;20251;-70
2022/12/09 09:39:19;;;;;;;46.58;24.40;;;;;;;2.17;92.82;100609.06;4944019;28;20066;-70
2022/12/09 09:42:01;;;;;;;51.20;24.33;;;;;;;2.19;92.46;100612.56;4951213;28;20141;-70
2022/12/09 09:44:44;;;;;;;45.30;22.75;;;;;;;2.20;92.55;100610.81;4941290;28;20050;-70
2022/12/09 09:47:31;;;;;;;49.80;24.15;;;;;;;2.22;92.49;100620.38;4944734;28;20044;-70
2022/12/09 09:50:25;;;;;;;45.15;23.35;;;;;;;2.30;92.14;100612.53;4953151;28;20039;-69
2022/12/09 09:52:54;;;;;;;56.05;27.05;;;;;;;2.32;91.87;100610.81;4953476;28;20043;-70
2022/12/09 09:55:42;;;;;;;47.45;23.80;;;;;;;2.37;92.02;100605.59;4955194;28;20470;-70
2022/12/09 09:59:08;;;;;;;45.65;22.70;;;;;;;2.42;92.27;100609.09;4947779;28;20051;-70
2022/12/09 10:01:37;;;;;;;56.72;25.80;;;;;;;2.49;92.04;100596.06;4893073;29;20056;-70
2022/12/09 10:04:28;;;;;;;47.65;24.33;;;;;;;2.59;91.90;100601.28;4888017;29;20056;-70
2022/12/09 10:07:17;;;;;;;47.65;22.83;;;;;;;2.60;91.39;100602.97;4927859;28;20087;-70
2022/12/09 10:10:15;;;;;;;47.55;24.80;;;;;;;2.59;90.57;100602.13;4951596;28;20047;-70
2022/12/09 10:13:40;;;;;;;60.80;30.40;;;;;;;2.60;91.12;100600.38;4953463;28;20783;-70
2022/12/09 10:16:43;;;;;;;56.78;27.38;;;;;;;2.64;90.30;100597.81;4953333;28;20532;-70
2022/12/09 10:19:35;;;;;;;45.72;23.23;;;;;;;2.67;90.01;100596.03;4953094;28;20127;-72
2022/12/09 10:22:18;;;;;;;96.82;50.47;;;;;;;2.64;89.39;100599.53;4953905;28;20190;-70
2022/12/09 10:24:54;;;;;;;58.00;29.33;;;;;;;2.64;89.79;100603.00;4915930;29;20875;-69
2022/12/09 10:27:44;;;;;;;49.03;22.48;;;;;;;2.67;89.82;100596.94;4933964;29;20043;-70
2022/12/09 10:30:17;;;;;;;42.80;22.35;;;;;;;2.67;89.07;100590.84;4933692;29;20079;-69
2022/12/09 10:32:47;;;;;;;42.47;22.60;;;;;;;2.68;89.21;100592.56;4950420;28;20110;-69
2022/12/09 10:35:26;;;;;;;43.35;22.35;;;;;;;2.73;89.07;100589.09;4952107;28;20059;-69
2022/12/09 10:38:05;;;;;;;42.75;22.92;;;;;;;2.77;89.30;100589.94;4952236;28;20052;-69
2022/12/09 10:40:38;;;;;;;49.13;23.88;;;;;;;2.83;89.42;100592.56;4952096;28;20040;-70
2022/12/09 10:43:43;;;;;;;51.70;25.85;;;;;;;2.87;89.29;100581.25;4951493;28;20043;-70
2022/12/09 10:46:17;;;;;;;;;;;;;;;2.95;89.31;100589.03;4952521;28;20107;-69
2022/12/09 10:48:47;;;;;;;44.20;23.17;;;;;;;3.00;88.70;100589.03;4952016;28;19927;-70
2022/12/09 10:51:20;;;;;;;42.13;21.33;;;;;;;3.06;88.83;100582.06;4952662;28;20148;-70
2022/12/09 10:54:03;;;;;;;40.67;21.00;;;;;;;3.07;88.28;100582.91;4949714;28;20692;-69
2022/12/09 10:56:35;;;;;;;42.15;23.02;;;;;;;3.04;88.30;100588.16;4951535;28;20062;-69
2022/12/09 10:59:10;;;;;;;42.38;20.55;;;;;;;3.03;88.51;100586.41;4952135;28;20142;-69
2022/12/09 11:01:59;;;;;;;39.50;20.52;;;;;;;3.02;88.50;100580.31;4942451;28;20055;-69
2022/12/09 11:04:42;;;;;;;40.10;20.90;;;;;;;3.08;88.30;100580.31;4952242;28;20779;-69
2022/12/09 11:07:23;;;;;;;44.45;21.02;;;;;;;3.10;88.51;100581.16;4952130;28;20047;-69
2022/12/09 11:09:57;;;;;;;44.22;21.75;;;;;;;3.12;88.21;100583.78;4951072;28;20056;-70
2022/12/09 11:12:27;;;;;;;41.57;22.13;;;;;;;3.14;88.39;100579.44;4952551;28;20047;-70
2022/12/09 11:15:48;;;;;;;44.38;23.90;;;;;;;3.17;88.06;100568.13;4952728;28;20903;-70
2022/12/09 11:18:30;;;;;;;40.45;20.90;;;;;;;3.17;88.33;100568.13;4948261;28;20128;-70
2022/12/09 11:21:05;;;;;;;43.08;22.35;;;;;;;3.23;88.66;100579.41;4951764;28;20048;-70
2022/12/09 11:23:34;;;;;;;42.00;21.67;;;;;;;3.21;88.36;100564.63;4951208;28;20047;-70
2022/12/09 11:26:20;;;;;;;44.08;23.88;;;;;;;3.18;88.15;100569.88;4951699;28;20076;-70
2022/12/09 11:29:13;;;;;;;44.03;22.45;;;;;;;3.21;87.59;100567.22;4952387;28;20039;-71
2022/12/09 11:31:42;;;;;;;39.25;21.50;;;;;;;3.22;87.29;100554.22;4932824;29;20055;-71
2022/12/09 11:34:26;;;;;;;52.30;25.38;;;;;;;3.32;87.47;100562.84;4915738;29;20082;-72
2022/12/09 11:36:57;;;;;;;48.40;23.58;;;;;;;3.34;87.60;100557.66;4933114;29;20556;-70
2022/12/09 11:39:28;;;;;;;43.42;22.33;;;;;;;3.39;87.54;100558.47;4944402;28;20052;-70
2022/12/09 11:42:13;;;;;;;45.28;23.23;;;;;;;3.48;87.01;100558.41;4952323;28;20044;-70
2022/12/09 11:44:53;;;;;;;44.45;23.13;;;;;;;3.51;87.35;100562.78;4951905;28;20162;-70
2022/12/09 11:47:30;;;;;;;41.25;21.70;;;;;;;3.61;87.55;100556.63;4952030;28;20506;-70